createdAt,value
2022-07-28T00:00:11.350Z,93.00
2022-07-28T00:02:38.661Z,93.00
2022-07-28T00:05:06.451Z,93.10
2022-07-28T00:07:33.851Z,93.30
2022-07-28T00:10:01.228Z,93.40
2022-07-28T00:12:28.439Z,93.60
2022-07-28T00:14:55.740Z,93.60
2022-07-28T00:17:23.100Z,93.50
2022-07-28T00:19:50.846Z,93.20
2022-07-28T00:22:18.404Z,93.20
2022-07-28T00:24:45.679Z,93.20
2022-07-28T00:27:14.751Z,93.10
2022-07-28T00:29:50.085Z,93.10
2022-07-28T00:32:19.146Z,93.10
2022-07-28T00:34:47.032Z,92.90
2022-07-28T00:37:14.819Z,92.80
2022-07-28T00:39:43.514Z,92.70
2022-07-28T00:42:10.798Z,92.70
2022-07-28T00:44:41.896Z,92.70
2022-07-28T00:47:09.528Z,92.60
2022-07-28T00:49:38.230Z,92.70
2022-07-28T00:52:08.842Z,92.60
2022-07-28T00:54:37.153Z,92.50
2022-07-28T00:57:04.475Z,92.50
2022-07-28T00:59:33.675Z,92.50
2022-07-28T01:02:02.211Z,92.60
2022-07-28T01:04:30.493Z,92.90
2022-07-28T01:07:11.946Z,92.60
2022-07-28T01:09:44.217Z,92.50
2022-07-28T01:12:11.382Z,92.60
2022-07-28T01:14:40.203Z,92.70
2022-07-28T01:17:35.303Z,92.70
2022-07-28T01:20:12.703Z,92.70
2022-07-28T01:23:04.470Z,92.80
2022-07-28T01:25:48.438Z,93.00
2022-07-28T01:28:34.795Z,92.70
2022-07-28T01:31:06.976Z,92.80
2022-07-28T01:33:38.634Z,92.80
2022-07-28T01:36:22.827Z,92.80
2022-07-28T01:38:51.036Z,92.90
2022-07-28T01:41:29.317Z,92.80
2022-07-28T01:44:05.899Z,92.80
2022-07-28T01:46:34.189Z,92.80
2022-07-28T01:49:02.810Z,92.80
2022-07-28T01:51:31.196Z,92.70
2022-07-28T01:54:00.320Z,92.80
2022-07-28T01:56:29.588Z,93.10
2022-07-28T01:59:00.064Z,92.90
2022-07-28T02:01:28.575Z,92.80
2022-07-28T02:03:58.167Z,92.80
2022-07-28T02:06:26.297Z,92.80
2022-07-28T02:08:54.810Z,92.90
2022-07-28T02:11:41.478Z,92.80
2022-07-28T02:14:13.927Z,92.80
2022-07-28T02:16:45.509Z,93.20
2022-07-28T02:19:13.887Z,92.90
2022-07-28T02:21:42.460Z,93.00
2022-07-28T02:24:12.433Z,93.00
2022-07-28T02:26:46.695Z,93.10
2022-07-28T02:29:40.383Z,93.20
2022-07-28T02:32:23.939Z,93.30
2022-07-28T02:35:27.928Z,93.20
2022-07-28T02:38:06.692Z,93.10
2022-07-28T02:40:37.352Z,93.20
2022-07-28T02:43:10.470Z,93.20
2022-07-28T02:45:41.706Z,93.20
2022-07-28T02:48:13.727Z,93.40
2022-07-28T02:50:42.939Z,93.50
2022-07-28T02:53:15.623Z,93.40
2022-07-28T02:55:48.221Z,93.40
2022-07-28T02:58:18.429Z,93.50
2022-07-28T03:00:46.378Z,93.40
2022-07-28T03:03:15.015Z,93.40
2022-07-28T03:05:42.641Z,93.40
2022-07-28T03:08:09.993Z,93.30
2022-07-28T03:10:37.325Z,93.50
2022-07-28T03:13:09.124Z,93.50
2022-07-28T03:15:40.293Z,93.40
2022-07-28T03:18:07.957Z,93.30
2022-07-28T03:20:35.803Z,93.40
2022-07-28T03:23:04.257Z,93.50
2022-07-28T03:25:53.906Z,93.50
2022-07-28T03:28:22.068Z,93.40
2022-07-28T03:31:03.941Z,93.40
2022-07-28T03:33:33.437Z,93.50
2022-07-28T03:36:06.774Z,93.60
2022-07-28T03:38:46.114Z,93.50
2022-07-28T03:41:15.109Z,93.50
2022-07-28T03:43:44.399Z,93.40
2022-07-28T03:46:13.616Z,93.40
2022-07-28T03:48:41.049Z,93.50
2022-07-28T03:51:08.327Z,93.50
2022-07-28T03:53:36.250Z,93.60
2022-07-28T03:56:03.989Z,93.60
2022-07-28T03:58:31.300Z,93.50
2022-07-28T04:00:59.298Z,93.40
2022-07-28T04:03:42.805Z,93.50
2022-07-28T04:06:15.710Z,93.50
2022-07-28T04:08:43.747Z,93.40
2022-07-28T04:11:11.357Z,93.60
2022-07-28T04:13:38.774Z,93.60
2022-07-28T04:16:07.172Z,93.50
2022-07-28T04:18:34.867Z,93.70
2022-07-28T04:21:02.251Z,93.80
2022-07-28T04:23:30.804Z,93.80
2022-07-28T04:25:58.018Z,93.90
2022-07-28T04:28:25.442Z,93.80
2022-07-28T04:30:52.789Z,93.80
2022-07-28T04:33:19.995Z,93.90
2022-07-28T04:35:47.433Z,94.00
2022-07-28T04:38:17.283Z,94.10
2022-07-28T04:40:44.676Z,94.30
2022-07-28T04:43:12.118Z,94.10
2022-07-28T04:45:39.646Z,94.30
2022-07-28T04:48:13.698Z,94.30
2022-07-28T04:50:42.164Z,94.60
2022-07-28T04:53:09.435Z,94.70
2022-07-28T04:55:39.042Z,94.70
2022-07-28T04:58:07.068Z,94.90
2022-07-28T05:00:36.688Z,94.90
2022-07-28T05:03:04.372Z,94.80
2022-07-28T05:05:31.793Z,95.00
2022-07-28T05:07:59.086Z,94.90
2022-07-28T05:10:26.353Z,95.20
2022-07-28T05:12:54.531Z,95.00
2022-07-28T05:15:21.786Z,95.00
2022-07-28T05:17:50.282Z,94.90
2022-07-28T05:20:17.642Z,94.80
2022-07-28T05:22:47.283Z,94.70
2022-07-28T05:25:16.106Z,94.70
2022-07-28T05:27:44.144Z,94.60
2022-07-28T05:30:11.513Z,94.60
2022-07-28T05:32:39.088Z,94.40
2022-07-28T05:35:06.835Z,94.20
2022-07-28T05:37:35.522Z,94.00
2022-07-28T05:40:08.243Z,93.70
2022-07-28T05:42:38.584Z,93.70
2022-07-28T05:45:15.634Z,93.70
2022-07-28T05:47:48.624Z,93.50
2022-07-28T05:50:17.337Z,93.40
2022-07-28T05:52:45.579Z,93.20
2022-07-28T05:55:13.414Z,93.10
2022-07-28T05:57:41.275Z,93.00
2022-07-28T06:00:17.815Z,92.60
2022-07-28T06:02:46.102Z,92.50
2022-07-28T06:05:14.070Z,92.70
2022-07-28T06:07:43.243Z,92.00
2022-07-28T06:10:16.851Z,91.20
2022-07-28T06:12:49.414Z,90.80
2022-07-28T06:15:22.241Z,90.90
2022-07-28T06:17:55.307Z,90.60
2022-07-28T06:20:24.462Z,90.40
2022-07-28T06:22:55.175Z,90.80
2022-07-28T06:25:28.281Z,90.50
2022-07-28T06:27:57.694Z,90.50
2022-07-28T06:30:25.699Z,90.20
2022-07-28T06:32:53.327Z,90.40
2022-07-28T06:35:20.556Z,90.40
2022-07-28T06:37:49.289Z,90.40
2022-07-28T06:40:18.476Z,89.90
2022-07-28T06:42:46.501Z,90.40
2022-07-28T06:45:21.000Z,89.80
2022-07-28T06:47:49.958Z,90.10
2022-07-28T06:50:26.351Z,89.40
2022-07-28T06:52:56.611Z,88.80
2022-07-28T06:55:23.946Z,87.80
2022-07-28T06:57:51.473Z,89.20
2022-07-28T07:00:18.933Z,88.70
2022-07-28T07:02:46.289Z,87.70
2022-07-28T07:05:14.039Z,88.10
2022-07-28T07:07:43.487Z,88.50
2022-07-28T07:10:11.372Z,88.00
2022-07-28T07:12:38.670Z,88.30
2022-07-28T07:15:07.253Z,88.40
2022-07-28T07:17:34.452Z,88.20
2022-07-28T07:20:01.773Z,88.80
2022-07-28T07:22:28.964Z,89.10
2022-07-28T07:24:57.784Z,88.50
2022-07-28T07:27:25.146Z,88.50
2022-07-28T07:29:52.254Z,87.90
2022-07-28T07:32:19.396Z,87.90
2022-07-28T07:34:46.581Z,87.40
2022-07-28T07:37:15.295Z,87.20
2022-07-28T07:39:42.497Z,87.60
2022-07-28T07:42:09.652Z,87.40
2022-07-28T07:44:36.938Z,86.40
2022-07-28T07:47:04.537Z,86.10
2022-07-28T07:49:45.354Z,85.20
2022-07-28T07:52:14.564Z,86.10
2022-07-28T07:54:42.380Z,85.30
2022-07-28T07:57:10.086Z,86.20
2022-07-28T07:59:37.649Z,86.10
2022-07-28T08:02:05.316Z,86.20
2022-07-28T08:04:37.709Z,86.50
2022-07-28T08:07:06.628Z,86.10
2022-07-28T08:09:34.547Z,85.90
2022-07-28T08:12:01.861Z,85.90
2022-07-28T08:14:29.333Z,85.40
2022-07-28T08:16:58.510Z,86.20
2022-07-28T08:19:26.048Z,86.60
2022-07-28T08:21:55.526Z,86.60
2022-07-28T08:24:33.720Z,85.50
2022-07-28T08:27:04.761Z,85.80
2022-07-28T08:29:32.064Z,86.10
2022-07-28T08:32:01.343Z,85.70
2022-07-28T08:34:32.942Z,85.10
2022-07-28T08:37:04.226Z,85.20
2022-07-28T08:39:33.736Z,84.00
2022-07-28T08:42:17.950Z,85.00
2022-07-28T08:45:01.266Z,84.70
2022-07-28T08:47:40.553Z,85.20
2022-07-28T08:50:16.298Z,84.40
2022-07-28T08:52:45.817Z,83.80
2022-07-28T08:55:19.416Z,82.90
2022-07-28T08:57:47.381Z,84.40
2022-07-28T09:00:14.874Z,83.00
2022-07-28T09:02:46.448Z,83.00
2022-07-28T09:05:23.871Z,83.40
2022-07-28T09:07:54.796Z,83.70
2022-07-28T09:10:23.320Z,83.30
2022-07-28T09:12:50.835Z,82.20
2022-07-28T09:15:18.080Z,82.30
2022-07-28T09:17:45.651Z,82.50
2022-07-28T09:20:13.997Z,80.80
2022-07-28T09:22:57.566Z,80.10
2022-07-28T09:25:25.602Z,80.50
2022-07-28T09:27:53.501Z,80.40
2022-07-28T09:30:54.282Z,79.50
2022-07-28T09:33:42.725Z,79.60
2022-07-28T09:36:16.277Z,79.70
2022-07-28T09:38:44.746Z,80.90
2022-07-28T09:41:12.331Z,79.00
2022-07-28T09:43:44.569Z,78.80
2022-07-28T09:46:14.268Z,78.50
2022-07-28T09:48:51.240Z,79.40
2022-07-28T09:51:21.959Z,76.90
2022-07-28T09:53:49.957Z,78.30
2022-07-28T09:56:17.232Z,77.80
2022-07-28T09:58:57.461Z,76.90
2022-07-28T10:01:28.646Z,77.40
2022-07-28T10:04:04.455Z,77.70
2022-07-28T10:06:34.132Z,78.10
2022-07-28T10:09:05.450Z,76.80
2022-07-28T10:11:35.377Z,76.20
2022-07-28T10:14:07.294Z,77.50
2022-07-28T10:16:36.725Z,76.20
2022-07-28T10:19:06.158Z,76.20
2022-07-28T10:21:45.796Z,75.80
2022-07-28T10:24:35.098Z,76.20
2022-07-28T10:27:04.632Z,74.70
2022-07-28T10:29:31.800Z,75.00
2022-07-28T10:32:05.200Z,75.30
2022-07-28T10:34:43.661Z,74.30
2022-07-28T10:37:17.629Z,74.50
2022-07-28T10:39:51.719Z,74.20
2022-07-28T10:42:20.802Z,73.60
2022-07-28T10:44:48.992Z,74.60
2022-07-28T10:47:18.639Z,75.30
2022-07-28T10:49:49.125Z,74.30
2022-07-28T10:52:37.703Z,73.40
2022-07-28T10:55:20.192Z,73.30
2022-07-28T10:58:01.773Z,74.00
2022-07-28T11:00:46.870Z,75.60
2022-07-28T11:03:36.303Z,73.20
2022-07-28T11:06:26.800Z,73.90
2022-07-28T11:08:55.607Z,74.50
2022-07-28T11:11:44.556Z,73.30
2022-07-28T11:14:27.800Z,73.90
2022-07-28T11:17:04.124Z,73.40
2022-07-28T11:22:35.056Z,74.20
2022-07-28T11:25:19.785Z,74.40
2022-07-28T11:27:54.625Z,74.40
2022-07-28T11:30:28.976Z,75.00
2022-07-28T11:32:57.956Z,75.20
2022-07-28T11:35:47.365Z,74.40
2022-07-28T11:38:15.157Z,75.00
2022-07-28T11:41:08.321Z,73.30
2022-07-28T11:43:38.868Z,73.10
2022-07-28T11:46:09.728Z,73.40
2022-07-28T11:48:42.743Z,72.20
2022-07-28T11:51:12.467Z,73.00
2022-07-28T11:53:40.716Z,73.00
2022-07-28T11:56:16.366Z,72.80
2022-07-28T11:58:43.716Z,72.30
2022-07-28T12:01:18.887Z,71.50
2022-07-28T12:03:50.082Z,73.00
2022-07-28T12:06:29.106Z,73.10
2022-07-28T12:09:00.989Z,73.60
2022-07-28T12:11:35.676Z,72.80
2022-07-28T12:14:07.642Z,73.00
2022-07-28T12:16:40.242Z,72.70
2022-07-28T12:19:08.491Z,73.20
2022-07-28T12:21:49.255Z,73.70
2022-07-28T12:24:28.227Z,73.90
2022-07-28T12:26:57.789Z,73.30
2022-07-28T12:29:35.423Z,73.60
2022-07-28T12:32:06.539Z,73.60
2022-07-28T12:34:35.290Z,73.80
2022-07-28T12:37:10.103Z,73.30
2022-07-28T12:39:39.641Z,73.30
2022-07-28T12:42:09.590Z,73.50
2022-07-28T12:44:39.902Z,73.00
2022-07-28T12:47:09.200Z,72.70
2022-07-28T12:49:37.561Z,73.40
2022-07-28T12:52:24.551Z,73.00
2022-07-28T12:54:56.647Z,73.10
2022-07-28T12:57:51.569Z,73.50
2022-07-28T13:00:23.468Z,73.70
2022-07-28T13:02:52.939Z,73.00
2022-07-28T13:05:54.141Z,72.90
2022-07-28T13:08:27.627Z,72.60
2022-07-28T13:10:58.844Z,73.50
2022-07-28T13:13:27.515Z,72.60
2022-07-28T13:16:15.660Z,72.60
2022-07-28T13:18:53.484Z,72.80
2022-07-28T13:21:56.145Z,71.70
2022-07-28T13:24:24.880Z,72.00
2022-07-28T13:26:52.025Z,71.90
2022-07-28T13:29:19.718Z,72.60
2022-07-28T13:31:47.224Z,72.50
2022-07-28T13:34:14.981Z,71.60
2022-07-28T13:36:42.487Z,72.20
2022-07-28T13:39:13.907Z,72.30
2022-07-28T13:41:56.368Z,71.80
2022-07-28T13:44:28.514Z,71.60
2022-07-28T13:46:56.778Z,71.50
2022-07-28T13:49:31.722Z,71.70
2022-07-28T13:52:00.211Z,71.90
2022-07-28T13:54:28.078Z,71.70
2022-07-28T13:56:55.504Z,72.40
2022-07-28T13:59:24.084Z,71.60
2022-07-28T14:01:55.943Z,72.80
2022-07-28T14:04:24.376Z,71.40
2022-07-28T14:06:52.262Z,71.30
2022-07-28T14:09:21.311Z,71.80
2022-07-28T14:11:49.971Z,70.40
2022-07-28T14:14:25.287Z,70.10
2022-07-28T14:16:56.153Z,71.40
2022-07-28T14:19:38.659Z,71.20
2022-07-28T14:22:13.417Z,70.30
2022-07-28T14:24:44.434Z,71.00
2022-07-28T14:27:11.698Z,71.40
2022-07-28T14:29:39.552Z,70.80
2022-07-28T14:32:07.439Z,70.00
2022-07-28T14:34:35.272Z,70.00
2022-07-28T14:37:09.005Z,70.50
2022-07-28T14:39:38.266Z,70.70
2022-07-28T14:42:06.600Z,70.20
2022-07-28T14:44:34.387Z,70.10
2022-07-28T14:47:01.890Z,70.40
2022-07-28T14:49:29.561Z,70.70
2022-07-28T14:51:57.875Z,70.30
2022-07-28T14:54:25.446Z,70.40
2022-07-28T14:56:52.606Z,69.50
2022-07-28T14:59:19.866Z,70.40
2022-07-28T15:01:48.644Z,69.10
2022-07-28T15:04:17.055Z,68.80
2022-07-28T15:06:44.627Z,70.00
2022-07-28T15:09:12.116Z,68.90
2022-07-28T15:11:41.223Z,68.80
2022-07-28T15:14:08.382Z,69.10
2022-07-28T15:16:35.961Z,69.60
2022-07-28T15:19:03.568Z,69.60
2022-07-28T15:21:35.841Z,69.40
2022-07-28T15:24:04.218Z,69.40
2022-07-28T15:26:31.286Z,69.20
2022-07-28T15:28:58.577Z,68.50
2022-07-28T15:31:26.151Z,69.30
2022-07-28T15:33:58.681Z,69.10
2022-07-28T15:36:26.308Z,68.60
2022-07-28T15:38:54.400Z,68.90
2022-07-28T15:41:21.647Z,69.20
2022-07-28T15:43:48.946Z,69.50
2022-07-28T15:46:16.453Z,69.60
2022-07-28T15:48:44.685Z,69.70
2022-07-28T15:51:12.143Z,69.40
2022-07-28T15:53:41.288Z,70.00
2022-07-28T15:56:08.906Z,69.00
2022-07-28T15:58:36.580Z,69.00
2022-07-28T16:01:03.945Z,69.50
2022-07-28T16:03:31.165Z,69.30
2022-07-28T16:05:58.846Z,70.10
2022-07-28T16:08:26.820Z,69.90
2022-07-28T16:10:54.925Z,69.60
2022-07-28T16:13:36.191Z,69.00
2022-07-28T16:16:11.901Z,69.70
2022-07-28T16:18:40.612Z,69.50
2022-07-28T16:21:09.295Z,69.50
2022-07-28T16:23:37.048Z,68.70
2022-07-28T16:26:07.768Z,68.50
2022-07-28T16:28:35.830Z,68.40
2022-07-28T16:31:03.108Z,68.60
2022-07-28T16:33:33.478Z,69.30
2022-07-28T16:36:02.212Z,69.20
2022-07-28T16:38:29.864Z,68.90
2022-07-28T16:40:57.346Z,68.80
2022-07-28T16:43:24.696Z,68.80
2022-07-28T16:45:52.181Z,68.90
2022-07-28T16:48:20.115Z,69.00
2022-07-28T16:50:47.389Z,69.20
2022-07-28T16:53:14.628Z,69.70
2022-07-28T16:55:42.360Z,70.00
2022-07-28T16:58:09.675Z,70.00
2022-07-28T17:00:37.002Z,70.20
2022-07-28T17:03:04.247Z,69.70
2022-07-28T17:05:32.847Z,70.10
2022-07-28T17:08:00.184Z,70.00
2022-07-28T17:10:27.814Z,70.20
2022-07-28T17:12:55.212Z,70.20
2022-07-28T17:15:23.553Z,70.10
2022-07-28T17:17:51.996Z,69.80
2022-07-28T17:20:20.611Z,70.30
2022-07-28T17:22:48.712Z,69.80
2022-07-28T17:28:05.648Z,70.10
2022-07-28T17:30:33.804Z,70.30
2022-07-28T17:33:08.086Z,70.20
2022-07-28T17:35:37.478Z,70.60
2022-07-28T17:38:07.304Z,71.20
2022-07-28T17:40:35.928Z,71.20
2022-07-28T17:43:03.182Z,71.20
2022-07-28T17:45:30.398Z,71.60
2022-07-28T17:47:57.647Z,71.60
2022-07-28T17:50:24.966Z,71.80
2022-07-28T17:52:52.086Z,71.70
2022-07-28T17:55:37.866Z,71.50
2022-07-28T17:58:29.105Z,71.20
2022-07-28T18:01:10.719Z,71.20
2022-07-28T18:03:59.761Z,71.10
2022-07-28T18:06:29.998Z,71.70
2022-07-28T18:08:57.782Z,71.50
2022-07-28T18:11:32.577Z,71.70
2022-07-28T18:14:04.584Z,72.80
2022-07-28T18:16:35.250Z,72.00
2022-07-28T18:19:05.301Z,71.70
2022-07-28T18:21:32.424Z,71.90
2022-07-28T18:24:02.516Z,72.70
2022-07-28T18:26:29.865Z,72.30
2022-07-28T18:28:57.118Z,72.50
2022-07-28T18:31:24.473Z,72.60
2022-07-28T18:33:51.612Z,72.60
2022-07-28T18:36:18.707Z,72.80
2022-07-28T18:38:45.964Z,72.70
2022-07-28T18:41:13.531Z,72.80
2022-07-28T18:43:40.705Z,72.70
2022-07-28T18:46:07.958Z,73.20
2022-07-28T18:48:35.258Z,73.20
2022-07-28T18:51:02.499Z,73.20
2022-07-28T18:53:29.756Z,73.50
2022-07-28T18:55:57.066Z,73.80
2022-07-28T18:58:24.255Z,73.60
2022-07-28T19:00:51.694Z,73.60
2022-07-28T19:03:18.974Z,73.80
2022-07-28T19:05:46.696Z,74.00
2022-07-28T19:08:14.117Z,74.40
2022-07-28T19:10:41.346Z,75.00
2022-07-28T19:13:09.207Z,75.00
2022-07-28T19:15:41.277Z,75.50
2022-07-28T19:18:10.536Z,76.20
2022-07-28T19:20:44.463Z,76.70
2022-07-28T19:23:11.688Z,77.90
2022-07-28T19:25:39.759Z,77.50
2022-07-28T19:28:07.050Z,78.30
2022-07-28T19:30:34.969Z,79.00
2022-07-28T19:33:03.389Z,78.50
2022-07-28T19:35:30.753Z,78.40
2022-07-28T19:38:00.146Z,78.80
2022-07-28T19:40:31.856Z,79.10
2022-07-28T19:42:59.705Z,79.40
2022-07-28T19:45:27.162Z,79.70
2022-07-28T19:47:57.249Z,79.80
2022-07-28T19:50:24.501Z,79.60
2022-07-28T19:52:51.663Z,80.20
2022-07-28T19:55:19.140Z,79.90
2022-07-28T19:57:46.817Z,79.90
2022-07-28T20:00:17.333Z,80.20
2022-07-28T20:02:45.937Z,80.80
2022-07-28T20:05:13.383Z,80.80
2022-07-28T20:07:40.785Z,81.40
2022-07-28T20:10:08.593Z,81.30
2022-07-28T20:12:36.910Z,81.80
2022-07-28T20:15:05.852Z,81.90
2022-07-28T20:17:38.910Z,82.90
2022-07-28T20:20:09.034Z,82.10
2022-07-28T20:22:37.782Z,83.50
2022-07-28T20:25:05.687Z,83.30
2022-07-28T20:27:40.429Z,83.80
2022-07-28T20:30:13.048Z,83.30
2022-07-28T20:32:42.150Z,83.70
2022-07-28T20:35:10.653Z,83.60
2022-07-28T20:37:38.997Z,83.90
2022-07-28T20:40:07.324Z,83.90
2022-07-28T20:42:35.236Z,84.20
2022-07-28T20:45:03.126Z,83.60
2022-07-28T20:47:32.501Z,84.70
2022-07-28T20:50:00.497Z,84.40
2022-07-28T20:52:27.699Z,84.20
2022-07-28T20:54:55.365Z,85.10
2022-07-28T20:57:23.325Z,85.10
2022-07-28T20:59:53.483Z,85.00
2022-07-28T21:02:21.045Z,85.60
2022-07-28T21:04:50.224Z,85.30
2022-07-28T21:07:59.795Z,86.20
2022-07-28T21:10:08.645Z,85.70
2022-07-28T21:12:37.236Z,85.40
2022-07-28T21:15:05.955Z,85.70
2022-07-28T21:17:33.324Z,86.20
2022-07-28T21:20:00.716Z,87.00
2022-07-28T21:22:27.944Z,86.80
2022-07-28T21:24:55.884Z,86.60
2022-07-28T21:27:23.939Z,86.80
2022-07-28T21:32:18.494Z,86.90
2022-07-28T21:34:45.930Z,87.20
2022-07-28T21:37:14.128Z,86.90
2022-07-28T21:39:41.417Z,86.90
2022-07-28T21:42:09.434Z,87.40
2022-07-28T21:44:37.723Z,86.80
2022-07-28T21:47:05.249Z,86.60
2022-07-28T21:49:32.864Z,86.40
2022-07-28T21:52:00.260Z,86.50
2022-07-28T21:54:27.904Z,86.50
2022-07-28T21:56:55.161Z,86.10
2022-07-28T21:59:22.257Z,86.70
2022-07-28T22:01:49.600Z,86.20
2022-07-28T22:04:17.331Z,86.40
2022-07-28T22:06:46.571Z,86.70
2022-07-28T22:09:15.178Z,86.40
2022-07-28T22:11:42.728Z,86.60
2022-07-28T22:14:10.219Z,86.60
2022-07-28T22:16:37.518Z,86.60
2022-07-28T22:19:04.925Z,86.70
2022-07-28T22:21:32.051Z,87.10
2022-07-28T22:23:59.403Z,86.50
2022-07-28T22:26:26.862Z,86.70
2022-07-28T22:28:54.123Z,86.40
2022-07-28T22:31:21.521Z,86.90
2022-07-28T22:33:48.677Z,86.80
2022-07-28T22:36:15.854Z,86.80
2022-07-28T22:38:43.268Z,86.70
2022-07-28T22:41:10.454Z,86.60
2022-07-28T22:43:37.933Z,86.90
2022-07-28T22:46:05.254Z,86.80
2022-07-28T22:48:32.470Z,87.00
2022-07-28T22:50:59.637Z,86.70
2022-07-28T22:53:26.809Z,87.00
2022-07-28T22:58:40.190Z,87.40
2022-07-28T23:01:07.610Z,87.20
2022-07-28T23:03:34.852Z,86.90
2022-07-28T23:06:03.714Z,87.80
2022-07-28T23:08:30.830Z,87.50
2022-07-28T23:10:57.966Z,87.70
2022-07-28T23:13:25.457Z,87.60
2022-07-28T23:15:52.709Z,87.60
2022-07-28T23:18:19.854Z,88.40
2022-07-28T23:20:47.149Z,87.80
2022-07-28T23:23:18.334Z,87.80
2022-07-28T23:25:46.890Z,87.90
2022-07-28T23:28:14.189Z,87.90
2022-07-28T23:30:41.480Z,87.80
2022-07-28T23:33:08.789Z,88.20
2022-07-28T23:35:43.283Z,88.40
2022-07-28T23:38:10.446Z,88.00
2022-07-28T23:40:37.654Z,88.30
2022-07-28T23:43:04.942Z,88.90
2022-07-28T23:45:32.264Z,88.90
2022-07-28T23:47:59.366Z,89.10
2022-07-28T23:50:27.289Z,89.10
2022-07-28T23:52:54.627Z,89.60
2022-07-28T23:55:21.991Z,89.20
2022-07-28T23:57:50.165Z,89.10
